<?xml version="1.0" encoding="UTF-8" standalone="no" ?>
<gpx xmlns="http://www.topografix.com/GPX/1/1" xmlns:xsi="http://www.w3.org/2001/XMLSchema-instance" xsi:schemaLocation="http://www.topografix.com/GPX/1/1 http://www.topografix.com/GPX/1/1/gpx.xsd" version="1.1" creator="VisuGPX - https://www.visugpx.com">
  <metadata>
    <name>Les Bauches Du Desert</name>
    <desc><![CDATA[Les Bauches Du Desert]]></desc>
  </metadata>
  <trk>
    <name><![CDATA[2015-08-30 18:42]]></name>
    <desc><![CDATA[<h1>OruxMaps</h1><br /><hr align="center" width="480" style="height: 2px; width: 517px"/><h2>Nom: 2015-08-30 18:42</h2><br /><p>Temps de départ: 08/30/2015 18:42</p><p>Temps d'arrivée: 08/30/2015 19:23</p><p>Distance: 8,8km (00:40)</p><p>Temps déplacement: 00:38</p><p>Vitesse moyenne: 13km/h</p><p>Vitesse moyenne: 13,7km/h</p><p>Vitess Max.: 25km/h</p><p>Altitude minimale: -5m</p><p>Altitude maximale: 33m</p><p>Vitesse d'élévation: 502m/h</p><p>Vitesse de descente: -285,4m/h</p><p>Gain Altitude: 44m</p><p>Perte Altitude: -39m</p><p>Temps d'élévation: 00:05</p><p>Temps de descente: 00:08</p><hr align="center" width="480" style="height: 2px; width: 517px"/>]]></desc>
    <trkseg>
      <trkpt lat="47.16764" lon="-1.62646">
        <ele>23.8</ele>
        <time>2015-08-30T16:42:50Z</time>
      </trkpt>
      <trkpt lat="47.16779" lon="-1.62663">
        <ele>23</ele>
        <time>2015-08-30T16:44:08Z</time>
      </trkpt>
      <trkpt lat="47.16793" lon="-1.62682">
        <ele>22.9</ele>
        <time>2015-08-30T16:44:14Z</time>
      </trkpt>
      <trkpt lat="47.16793" lon="-1.62712">
        <ele>22.9</ele>
        <time>2015-08-30T16:44:23Z</time>
      </trkpt>
      <trkpt lat="47.16794" lon="-1.62742">
        <ele>22.8</ele>
        <time>2015-08-30T16:44:28Z</time>
      </trkpt>
      <trkpt lat="47.16797" lon="-1.62771">
        <ele>22.7</ele>
        <time>2015-08-30T16:44:33Z</time>
      </trkpt>
      <trkpt lat="47.16804" lon="-1.628">
        <ele>22.7</ele>
        <time>2015-08-30T16:44:38Z</time>
      </trkpt>
      <trkpt lat="47.16818" lon="-1.62821">
        <ele>22.7</ele>
        <time>2015-08-30T16:44:43Z</time>
      </trkpt>
      <trkpt lat="47.16832" lon="-1.6284">
        <ele>22.7</ele>
        <time>2015-08-30T16:44:48Z</time>
      </trkpt>
      <trkpt lat="47.16851" lon="-1.62857">
        <ele>22.7</ele>
        <time>2015-08-30T16:44:53Z</time>
      </trkpt>
      <trkpt lat="47.16871" lon="-1.62868">
        <ele>22.7</ele>
        <time>2015-08-30T16:44:58Z</time>
      </trkpt>
      <trkpt lat="47.16892" lon="-1.6288">
        <ele>22.7</ele>
        <time>2015-08-30T16:45:03Z</time>
      </trkpt>
      <trkpt lat="47.16912" lon="-1.62891">
        <ele>22.7</ele>
        <time>2015-08-30T16:45:08Z</time>
      </trkpt>
      <trkpt lat="47.16934" lon="-1.629">
        <ele>22.7</ele>
        <time>2015-08-30T16:45:13Z</time>
      </trkpt>
      <trkpt lat="47.1695" lon="-1.62914">
        <ele>22.8</ele>
        <time>2015-08-30T16:45:18Z</time>
      </trkpt>
      <trkpt lat="47.16966" lon="-1.62925">
        <ele>22.8</ele>
        <time>2015-08-30T16:45:23Z</time>
      </trkpt>
      <trkpt lat="47.16983" lon="-1.62938">
        <ele>22.8</ele>
        <time>2015-08-30T16:45:28Z</time>
      </trkpt>
      <trkpt lat="47.17003" lon="-1.62944">
        <ele>22.9</ele>
        <time>2015-08-30T16:45:34Z</time>
      </trkpt>
      <trkpt lat="47.17022" lon="-1.6295">
        <ele>22.9</ele>
        <time>2015-08-30T16:45:39Z</time>
      </trkpt>
      <trkpt lat="47.1704" lon="-1.62951">
        <ele>22.9</ele>
        <time>2015-08-30T16:45:44Z</time>
      </trkpt>
      <trkpt lat="47.17059" lon="-1.62952">
        <ele>22.9</ele>
        <time>2015-08-30T16:45:49Z</time>
      </trkpt>
      <trkpt lat="47.17079" lon="-1.62948">
        <ele>22.9</ele>
        <time>2015-08-30T16:45:56Z</time>
      </trkpt>
      <trkpt lat="47.171" lon="-1.62934">
        <ele>22.8</ele>
        <time>2015-08-30T16:46:01Z</time>
      </trkpt>
      <trkpt lat="47.17118" lon="-1.62914">
        <ele>22.3</ele>
        <time>2015-08-30T16:46:05Z</time>
      </trkpt>
      <trkpt lat="47.17133" lon="-1.62898">
        <ele>22</ele>
        <time>2015-08-30T16:46:09Z</time>
      </trkpt>
      <trkpt lat="47.17153" lon="-1.62884">
        <ele>21.6</ele>
        <time>2015-08-30T16:46:14Z</time>
      </trkpt>
      <trkpt lat="47.17168" lon="-1.62863">
        <ele>21.4</ele>
        <time>2015-08-30T16:46:19Z</time>
      </trkpt>
      <trkpt lat="47.17178" lon="-1.62837">
        <ele>21</ele>
        <time>2015-08-30T16:46:24Z</time>
      </trkpt>
      <trkpt lat="47.17189" lon="-1.62813">
        <ele>20.7</ele>
        <time>2015-08-30T16:46:29Z</time>
      </trkpt>
      <trkpt lat="47.172" lon="-1.62787">
        <ele>20.3</ele>
        <time>2015-08-30T16:46:34Z</time>
      </trkpt>
      <trkpt lat="47.17214" lon="-1.62763">
        <ele>20</ele>
        <time>2015-08-30T16:46:40Z</time>
      </trkpt>
      <trkpt lat="47.17231" lon="-1.6275">
        <ele>19.8</ele>
        <time>2015-08-30T16:46:46Z</time>
      </trkpt>
      <trkpt lat="47.1725" lon="-1.6276">
        <ele>19.5</ele>
        <time>2015-08-30T16:46:53Z</time>
      </trkpt>
      <trkpt lat="47.17268" lon="-1.62772">
        <ele>19.3</ele>
        <time>2015-08-30T16:47:00Z</time>
      </trkpt>
      <trkpt lat="47.1728" lon="-1.62797">
        <ele>18.9</ele>
        <time>2015-08-30T16:47:07Z</time>
      </trkpt>
      <trkpt lat="47.17288" lon="-1.62824">
        <ele>18.6</ele>
        <time>2015-08-30T16:47:13Z</time>
      </trkpt>
      <trkpt lat="47.17297" lon="-1.6285">
        <ele>18.5</ele>
        <time>2015-08-30T16:47:19Z</time>
      </trkpt>
      <trkpt lat="47.17311" lon="-1.62872">
        <ele>18.4</ele>
        <time>2015-08-30T16:47:24Z</time>
      </trkpt>
      <trkpt lat="47.17305" lon="-1.62899">
        <ele>18.2</ele>
        <time>2015-08-30T16:47:30Z</time>
      </trkpt>
      <trkpt lat="47.173" lon="-1.62927">
        <ele>18</ele>
        <time>2015-08-30T16:47:35Z</time>
      </trkpt>
      <trkpt lat="47.17293" lon="-1.62953">
        <ele>17.7</ele>
        <time>2015-08-30T16:47:40Z</time>
      </trkpt>
      <trkpt lat="47.17287" lon="-1.62981">
        <ele>17.5</ele>
        <time>2015-08-30T16:47:46Z</time>
      </trkpt>
      <trkpt lat="47.17274" lon="-1.63005">
        <ele>17.3</ele>
        <time>2015-08-30T16:47:52Z</time>
      </trkpt>
      <trkpt lat="47.17259" lon="-1.63022">
        <ele>17.2</ele>
        <time>2015-08-30T16:47:57Z</time>
      </trkpt>
      <trkpt lat="47.17245" lon="-1.63044">
        <ele>17.2</ele>
        <time>2015-08-30T16:48:02Z</time>
      </trkpt>
      <trkpt lat="47.17233" lon="-1.63065">
        <ele>17</ele>
        <time>2015-08-30T16:48:07Z</time>
      </trkpt>
      <trkpt lat="47.17219" lon="-1.63083">
        <ele>16.9</ele>
        <time>2015-08-30T16:48:12Z</time>
      </trkpt>
      <trkpt lat="47.17204" lon="-1.631">
        <ele>16.8</ele>
        <time>2015-08-30T16:48:17Z</time>
      </trkpt>
      <trkpt lat="47.17189" lon="-1.63115">
        <ele>16.8</ele>
        <time>2015-08-30T16:48:23Z</time>
      </trkpt>
      <trkpt lat="47.17173" lon="-1.6313">
        <ele>16.8</ele>
        <time>2015-08-30T16:48:28Z</time>
      </trkpt>
      <trkpt lat="47.17155" lon="-1.63145">
        <ele>16.8</ele>
        <time>2015-08-30T16:48:34Z</time>
      </trkpt>
      <trkpt lat="47.17137" lon="-1.63151">
        <ele>16.7</ele>
        <time>2015-08-30T16:48:40Z</time>
      </trkpt>
      <trkpt lat="47.17119" lon="-1.63158">
        <ele>16.6</ele>
        <time>2015-08-30T16:48:45Z</time>
      </trkpt>
      <trkpt lat="47.17099" lon="-1.63162">
        <ele>16.5</ele>
        <time>2015-08-30T16:48:51Z</time>
      </trkpt>
      <trkpt lat="47.1708" lon="-1.63172">
        <ele>16.3</ele>
        <time>2015-08-30T16:48:58Z</time>
      </trkpt>
      <trkpt lat="47.17063" lon="-1.63184">
        <ele>16.2</ele>
        <time>2015-08-30T16:49:03Z</time>
      </trkpt>
      <trkpt lat="47.17043" lon="-1.63192">
        <ele>16</ele>
        <time>2015-08-30T16:49:09Z</time>
      </trkpt>
      <trkpt lat="47.17024" lon="-1.63201">
        <ele>15.9</ele>
        <time>2015-08-30T16:49:15Z</time>
      </trkpt>
      <trkpt lat="47.17005" lon="-1.63212">
        <ele>15.8</ele>
        <time>2015-08-30T16:49:20Z</time>
      </trkpt>
      <trkpt lat="47.16989" lon="-1.63226">
        <ele>15.7</ele>
        <time>2015-08-30T16:49:25Z</time>
      </trkpt>
      <trkpt lat="47.16975" lon="-1.63244">
        <ele>15.5</ele>
        <time>2015-08-30T16:49:30Z</time>
      </trkpt>
      <trkpt lat="47.16958" lon="-1.63257">
        <ele>15.4</ele>
        <time>2015-08-30T16:49:36Z</time>
      </trkpt>
      <trkpt lat="47.16948" lon="-1.63278">
        <ele>15.2</ele>
        <time>2015-08-30T16:49:42Z</time>
      </trkpt>
      <trkpt lat="47.16933" lon="-1.63297">
        <ele>15.1</ele>
        <time>2015-08-30T16:49:48Z</time>
      </trkpt>
      <trkpt lat="47.16918" lon="-1.63317">
        <ele>14.9</ele>
        <time>2015-08-30T16:49:54Z</time>
      </trkpt>
      <trkpt lat="47.16904" lon="-1.63339">
        <ele>14.8</ele>
        <time>2015-08-30T16:50:00Z</time>
      </trkpt>
      <trkpt lat="47.1689" lon="-1.63362">
        <ele>14.7</ele>
        <time>2015-08-30T16:50:06Z</time>
      </trkpt>
      <trkpt lat="47.1688" lon="-1.63386">
        <ele>14.6</ele>
        <time>2015-08-30T16:50:11Z</time>
      </trkpt>
      <trkpt lat="47.16868" lon="-1.63407">
        <ele>14.4</ele>
        <time>2015-08-30T16:50:17Z</time>
      </trkpt>
      <trkpt lat="47.16857" lon="-1.63429">
        <ele>14.3</ele>
        <time>2015-08-30T16:50:23Z</time>
      </trkpt>
      <trkpt lat="47.16846" lon="-1.63453">
        <ele>14.1</ele>
        <time>2015-08-30T16:50:29Z</time>
      </trkpt>
      <trkpt lat="47.16832" lon="-1.63475">
        <ele>14</ele>
        <time>2015-08-30T16:50:36Z</time>
      </trkpt>
      <trkpt lat="47.16818" lon="-1.63493">
        <ele>13.7</ele>
        <time>2015-08-30T16:50:44Z</time>
      </trkpt>
      <trkpt lat="47.16805" lon="-1.63516">
        <ele>13.6</ele>
        <time>2015-08-30T16:50:50Z</time>
      </trkpt>
      <trkpt lat="47.16789" lon="-1.63538">
        <ele>13.5</ele>
        <time>2015-08-30T16:50:56Z</time>
      </trkpt>
      <trkpt lat="47.16777" lon="-1.63558">
        <ele>13.4</ele>
        <time>2015-08-30T16:51:01Z</time>
      </trkpt>
      <trkpt lat="47.16765" lon="-1.63579">
        <ele>13.3</ele>
        <time>2015-08-30T16:51:07Z</time>
      </trkpt>
      <trkpt lat="47.16758" lon="-1.63608">
        <ele>13.1</ele>
        <time>2015-08-30T16:51:13Z</time>
      </trkpt>
      <trkpt lat="47.16751" lon="-1.63638">
        <ele>13</ele>
        <time>2015-08-30T16:51:19Z</time>
      </trkpt>
      <trkpt lat="47.16751" lon="-1.63666">
        <ele>12.9</ele>
        <time>2015-08-30T16:51:26Z</time>
      </trkpt>
      <trkpt lat="47.16762" lon="-1.63691">
        <ele>13</ele>
        <time>2015-08-30T16:51:33Z</time>
      </trkpt>
      <trkpt lat="47.16775" lon="-1.63714">
        <ele>13</ele>
        <time>2015-08-30T16:51:39Z</time>
      </trkpt>
      <trkpt lat="47.16791" lon="-1.63732">
        <ele>13.1</ele>
        <time>2015-08-30T16:51:46Z</time>
      </trkpt>
      <trkpt lat="47.1681" lon="-1.63734">
        <ele>13.2</ele>
        <time>2015-08-30T16:51:50Z</time>
      </trkpt>
      <trkpt lat="47.16828" lon="-1.63733">
        <ele>13.3</ele>
        <time>2015-08-30T16:51:53Z</time>
      </trkpt>
      <trkpt lat="47.16847" lon="-1.63733">
        <ele>13.4</ele>
        <time>2015-08-30T16:51:56Z</time>
      </trkpt>
      <trkpt lat="47.16868" lon="-1.63742">
        <ele>13.4</ele>
        <time>2015-08-30T16:52:02Z</time>
      </trkpt>
      <trkpt lat="47.16889" lon="-1.63752">
        <ele>13.4</ele>
        <time>2015-08-30T16:52:07Z</time>
      </trkpt>
      <trkpt lat="47.1691" lon="-1.63745">
        <ele>13.5</ele>
        <time>2015-08-30T16:52:12Z</time>
      </trkpt>
      <trkpt lat="47.16928" lon="-1.63745">
        <ele>13.6</ele>
        <time>2015-08-30T16:52:17Z</time>
      </trkpt>
      <trkpt lat="47.16949" lon="-1.63744">
        <ele>13.7</ele>
        <time>2015-08-30T16:52:23Z</time>
      </trkpt>
      <trkpt lat="47.16971" lon="-1.63741">
        <ele>13.7</ele>
        <time>2015-08-30T16:52:28Z</time>
      </trkpt>
      <trkpt lat="47.16992" lon="-1.63744">
        <ele>13.7</ele>
        <time>2015-08-30T16:52:34Z</time>
      </trkpt>
      <trkpt lat="47.17012" lon="-1.63749">
        <ele>13.7</ele>
        <time>2015-08-30T16:52:40Z</time>
      </trkpt>
      <trkpt lat="47.17031" lon="-1.6376">
        <ele>13.6</ele>
        <time>2015-08-30T16:52:46Z</time>
      </trkpt>
      <trkpt lat="47.1705" lon="-1.63766">
        <ele>13.6</ele>
        <time>2015-08-30T16:52:51Z</time>
      </trkpt>
      <trkpt lat="47.17067" lon="-1.63776">
        <ele>13.6</ele>
        <time>2015-08-30T16:52:57Z</time>
      </trkpt>
      <trkpt lat="47.17079" lon="-1.63798">
        <ele>13.6</ele>
        <time>2015-08-30T16:53:04Z</time>
      </trkpt>
      <trkpt lat="47.17091" lon="-1.6382">
        <ele>13.6</ele>
        <time>2015-08-30T16:53:10Z</time>
      </trkpt>
      <trkpt lat="47.17103" lon="-1.63845">
        <ele>13.6</ele>
        <time>2015-08-30T16:53:16Z</time>
      </trkpt>
      <trkpt lat="47.17107" lon="-1.63874">
        <ele>13.6</ele>
        <time>2015-08-30T16:53:22Z</time>
      </trkpt>
      <trkpt lat="47.17115" lon="-1.63901">
        <ele>13.5</ele>
        <time>2015-08-30T16:53:28Z</time>
      </trkpt>
      <trkpt lat="47.17125" lon="-1.63926">
        <ele>13.5</ele>
        <time>2015-08-30T16:53:34Z</time>
      </trkpt>
      <trkpt lat="47.17128" lon="-1.63956">
        <ele>13.5</ele>
        <time>2015-08-30T16:53:40Z</time>
      </trkpt>
      <trkpt lat="47.17127" lon="-1.63984">
        <ele>13.5</ele>
        <time>2015-08-30T16:53:46Z</time>
      </trkpt>
      <trkpt lat="47.17125" lon="-1.64011">
        <ele>13.4</ele>
        <time>2015-08-30T16:53:50Z</time>
      </trkpt>
      <trkpt lat="47.17122" lon="-1.64038">
        <ele>13.5</ele>
        <time>2015-08-30T16:53:55Z</time>
      </trkpt>
      <trkpt lat="47.17118" lon="-1.64067">
        <ele>13.6</ele>
        <time>2015-08-30T16:54:00Z</time>
      </trkpt>
      <trkpt lat="47.17114" lon="-1.64096">
        <ele>13.6</ele>
        <time>2015-08-30T16:54:06Z</time>
      </trkpt>
      <trkpt lat="47.17109" lon="-1.64122">
        <ele>13.6</ele>
        <time>2015-08-30T16:54:12Z</time>
      </trkpt>
      <trkpt lat="47.17108" lon="-1.64152">
        <ele>13.6</ele>
        <time>2015-08-30T16:54:18Z</time>
      </trkpt>
      <trkpt lat="47.17105" lon="-1.64182">
        <ele>13.5</ele>
        <time>2015-08-30T16:54:24Z</time>
      </trkpt>
      <trkpt lat="47.17102" lon="-1.6421">
        <ele>13.6</ele>
        <time>2015-08-30T16:54:30Z</time>
      </trkpt>
      <trkpt lat="47.17098" lon="-1.64237">
        <ele>13.7</ele>
        <time>2015-08-30T16:54:36Z</time>
      </trkpt>
      <trkpt lat="47.17094" lon="-1.64265">
        <ele>13.7</ele>
        <time>2015-08-30T16:54:42Z</time>
      </trkpt>
      <trkpt lat="47.17092" lon="-1.64292">
        <ele>13.8</ele>
        <time>2015-08-30T16:54:48Z</time>
      </trkpt>
      <trkpt lat="47.17091" lon="-1.6432">
        <ele>13.7</ele>
        <time>2015-08-30T16:54:54Z</time>
      </trkpt>
      <trkpt lat="47.17088" lon="-1.64349">
        <ele>13.6</ele>
        <time>2015-08-30T16:55:00Z</time>
      </trkpt>
      <trkpt lat="47.17084" lon="-1.6438">
        <ele>13.6</ele>
        <time>2015-08-30T16:55:07Z</time>
      </trkpt>
      <trkpt lat="47.17081" lon="-1.64406">
        <ele>13.5</ele>
        <time>2015-08-30T16:55:14Z</time>
      </trkpt>
      <trkpt lat="47.17079" lon="-1.64434">
        <ele>13.6</ele>
        <time>2015-08-30T16:55:20Z</time>
      </trkpt>
      <trkpt lat="47.17076" lon="-1.64463">
        <ele>13.6</ele>
        <time>2015-08-30T16:55:25Z</time>
      </trkpt>
      <trkpt lat="47.17074" lon="-1.64493">
        <ele>13.6</ele>
        <time>2015-08-30T16:55:31Z</time>
      </trkpt>
      <trkpt lat="47.17074" lon="-1.64522">
        <ele>13.6</ele>
        <time>2015-08-30T16:55:37Z</time>
      </trkpt>
      <trkpt lat="47.17075" lon="-1.64551">
        <ele>13.6</ele>
        <time>2015-08-30T16:55:43Z</time>
      </trkpt>
      <trkpt lat="47.17078" lon="-1.64582">
        <ele>13.8</ele>
        <time>2015-08-30T16:55:48Z</time>
      </trkpt>
      <trkpt lat="47.17077" lon="-1.64611">
        <ele>14.1</ele>
        <time>2015-08-30T16:55:53Z</time>
      </trkpt>
      <trkpt lat="47.17078" lon="-1.64639">
        <ele>14.2</ele>
        <time>2015-08-30T16:55:58Z</time>
      </trkpt>
      <trkpt lat="47.17081" lon="-1.64667">
        <ele>14.2</ele>
        <time>2015-08-30T16:56:03Z</time>
      </trkpt>
      <trkpt lat="47.17082" lon="-1.64695">
        <ele>14.2</ele>
        <time>2015-08-30T16:56:09Z</time>
      </trkpt>
      <trkpt lat="47.17084" lon="-1.64726">
        <ele>14.1</ele>
        <time>2015-08-30T16:56:16Z</time>
      </trkpt>
      <trkpt lat="47.17086" lon="-1.64752">
        <ele>14.1</ele>
        <time>2015-08-30T16:56:22Z</time>
      </trkpt>
      <trkpt lat="47.17086" lon="-1.64779">
        <ele>14.1</ele>
        <time>2015-08-30T16:56:28Z</time>
      </trkpt>
      <trkpt lat="47.17088" lon="-1.64807">
        <ele>14.1</ele>
        <time>2015-08-30T16:56:34Z</time>
      </trkpt>
      <trkpt lat="47.1709" lon="-1.64837">
        <ele>14.1</ele>
        <time>2015-08-30T16:56:40Z</time>
      </trkpt>
      <trkpt lat="47.17092" lon="-1.64866">
        <ele>14.1</ele>
        <time>2015-08-30T16:56:45Z</time>
      </trkpt>
      <trkpt lat="47.17096" lon="-1.64895">
        <ele>14.1</ele>
        <time>2015-08-30T16:56:51Z</time>
      </trkpt>
      <trkpt lat="47.17098" lon="-1.64924">
        <ele>14</ele>
        <time>2015-08-30T16:56:58Z</time>
      </trkpt>
      <trkpt lat="47.17101" lon="-1.64952">
        <ele>13.9</ele>
        <time>2015-08-30T16:57:05Z</time>
      </trkpt>
      <trkpt lat="47.17097" lon="-1.64982">
        <ele>13.9</ele>
        <time>2015-08-30T16:57:12Z</time>
      </trkpt>
      <trkpt lat="47.17101" lon="-1.65013">
        <ele>13.8</ele>
        <time>2015-08-30T16:57:20Z</time>
      </trkpt>
      <trkpt lat="47.17108" lon="-1.65039">
        <ele>13.8</ele>
        <time>2015-08-30T16:57:26Z</time>
      </trkpt>
      <trkpt lat="47.17109" lon="-1.65069">
        <ele>13.8</ele>
        <time>2015-08-30T16:57:32Z</time>
      </trkpt>
      <trkpt lat="47.17111" lon="-1.65096">
        <ele>13.8</ele>
        <time>2015-08-30T16:57:38Z</time>
      </trkpt>
      <trkpt lat="47.17111" lon="-1.65123">
        <ele>13.7</ele>
        <time>2015-08-30T16:57:43Z</time>
      </trkpt>
      <trkpt lat="47.17112" lon="-1.65154">
        <ele>13.8</ele>
        <time>2015-08-30T16:57:48Z</time>
      </trkpt>
      <trkpt lat="47.1711" lon="-1.65185">
        <ele>14</ele>
        <time>2015-08-30T16:57:53Z</time>
      </trkpt>
      <trkpt lat="47.1711" lon="-1.65215">
        <ele>14.3</ele>
        <time>2015-08-30T16:57:58Z</time>
      </trkpt>
      <trkpt lat="47.17107" lon="-1.65244">
        <ele>14.3</ele>
        <time>2015-08-30T16:58:05Z</time>
      </trkpt>
      <trkpt lat="47.17096" lon="-1.6527">
        <ele>14.9</ele>
        <time>2015-08-30T16:58:12Z</time>
      </trkpt>
      <trkpt lat="47.17085" lon="-1.65294">
        <ele>15.3</ele>
        <time>2015-08-30T16:58:18Z</time>
      </trkpt>
      <trkpt lat="47.17091" lon="-1.65326">
        <ele>15.5</ele>
        <time>2015-08-30T16:58:23Z</time>
      </trkpt>
      <trkpt lat="47.17099" lon="-1.65354">
        <ele>15.6</ele>
        <time>2015-08-30T16:58:28Z</time>
      </trkpt>
      <trkpt lat="47.17107" lon="-1.65379">
        <ele>15.6</ele>
        <time>2015-08-30T16:58:33Z</time>
      </trkpt>
      <trkpt lat="47.1711" lon="-1.65409">
        <ele>15.8</ele>
        <time>2015-08-30T16:58:39Z</time>
      </trkpt>
      <trkpt lat="47.17115" lon="-1.65437">
        <ele>16.1</ele>
        <time>2015-08-30T16:58:45Z</time>
      </trkpt>
      <trkpt lat="47.17121" lon="-1.65468">
        <ele>16.3</ele>
        <time>2015-08-30T16:58:50Z</time>
      </trkpt>
      <trkpt lat="47.1712" lon="-1.65495">
        <ele>16.6</ele>
        <time>2015-08-30T16:58:55Z</time>
      </trkpt>
      <trkpt lat="47.17121" lon="-1.65525">
        <ele>16.8</ele>
        <time>2015-08-30T16:58:59Z</time>
      </trkpt>
      <trkpt lat="47.1712" lon="-1.65553">
        <ele>17.2</ele>
        <time>2015-08-30T16:59:03Z</time>
      </trkpt>
      <trkpt lat="47.17117" lon="-1.65581">
        <ele>17.3</ele>
        <time>2015-08-30T16:59:07Z</time>
      </trkpt>
      <trkpt lat="47.17106" lon="-1.65605">
        <ele>17.5</ele>
        <time>2015-08-30T16:59:13Z</time>
      </trkpt>
      <trkpt lat="47.17097" lon="-1.6563">
        <ele>17.6</ele>
        <time>2015-08-30T16:59:19Z</time>
      </trkpt>
      <trkpt lat="47.17088" lon="-1.65655">
        <ele>17.8</ele>
        <time>2015-08-30T16:59:24Z</time>
      </trkpt>
      <trkpt lat="47.17075" lon="-1.65676">
        <ele>18.1</ele>
        <time>2015-08-30T16:59:31Z</time>
      </trkpt>
      <trkpt lat="47.17063" lon="-1.65699">
        <ele>18.5</ele>
        <time>2015-08-30T16:59:38Z</time>
      </trkpt>
      <trkpt lat="47.1705" lon="-1.65719">
        <ele>18.6</ele>
        <time>2015-08-30T16:59:44Z</time>
      </trkpt>
      <trkpt lat="47.17036" lon="-1.65735">
        <ele>18.7</ele>
        <time>2015-08-30T16:59:50Z</time>
      </trkpt>
      <trkpt lat="47.17019" lon="-1.65753">
        <ele>19.1</ele>
        <time>2015-08-30T16:59:57Z</time>
      </trkpt>
      <trkpt lat="47.17003" lon="-1.65766">
        <ele>19.4</ele>
        <time>2015-08-30T17:00:02Z</time>
      </trkpt>
      <trkpt lat="47.16985" lon="-1.65765">
        <ele>19.9</ele>
        <time>2015-08-30T17:00:07Z</time>
      </trkpt>
      <trkpt lat="47.16972" lon="-1.65784">
        <ele>20.7</ele>
        <time>2015-08-30T17:00:16Z</time>
      </trkpt>
      <trkpt lat="47.16962" lon="-1.65806">
        <ele>20.9</ele>
        <time>2015-08-30T17:00:22Z</time>
      </trkpt>
      <trkpt lat="47.16946" lon="-1.65822">
        <ele>21.2</ele>
        <time>2015-08-30T17:00:30Z</time>
      </trkpt>
      <trkpt lat="47.1693" lon="-1.65833">
        <ele>21.7</ele>
        <time>2015-08-30T17:00:37Z</time>
      </trkpt>
      <trkpt lat="47.16918" lon="-1.65856">
        <ele>22.2</ele>
        <time>2015-08-30T17:00:43Z</time>
      </trkpt>
      <trkpt lat="47.16905" lon="-1.65877">
        <ele>22.7</ele>
        <time>2015-08-30T17:00:49Z</time>
      </trkpt>
      <trkpt lat="47.16895" lon="-1.65907">
        <ele>23.1</ele>
        <time>2015-08-30T17:00:55Z</time>
      </trkpt>
      <trkpt lat="47.16886" lon="-1.65933">
        <ele>23.2</ele>
        <time>2015-08-30T17:01:00Z</time>
      </trkpt>
      <trkpt lat="47.1687" lon="-1.65948">
        <ele>23.8</ele>
        <time>2015-08-30T17:01:07Z</time>
      </trkpt>
      <trkpt lat="47.16849" lon="-1.6595">
        <ele>24.1</ele>
        <time>2015-08-30T17:01:13Z</time>
      </trkpt>
      <trkpt lat="47.16834" lon="-1.65932">
        <ele>24.5</ele>
        <time>2015-08-30T17:01:20Z</time>
      </trkpt>
      <trkpt lat="47.1683" lon="-1.65906">
        <ele>24.5</ele>
        <time>2015-08-30T17:01:25Z</time>
      </trkpt>
      <trkpt lat="47.16818" lon="-1.65883">
        <ele>24.6</ele>
        <time>2015-08-30T17:01:31Z</time>
      </trkpt>
      <trkpt lat="47.16807" lon="-1.65859">
        <ele>24.6</ele>
        <time>2015-08-30T17:01:38Z</time>
      </trkpt>
      <trkpt lat="47.16801" lon="-1.65831">
        <ele>24.9</ele>
        <time>2015-08-30T17:01:45Z</time>
      </trkpt>
      <trkpt lat="47.16792" lon="-1.65805">
        <ele>25</ele>
        <time>2015-08-30T17:01:53Z</time>
      </trkpt>
      <trkpt lat="47.16779" lon="-1.65785">
        <ele>25.2</ele>
        <time>2015-08-30T17:02:00Z</time>
      </trkpt>
      <trkpt lat="47.16763" lon="-1.65772">
        <ele>25.4</ele>
        <time>2015-08-30T17:02:06Z</time>
      </trkpt>
      <trkpt lat="47.16747" lon="-1.65759">
        <ele>25.6</ele>
        <time>2015-08-30T17:02:11Z</time>
      </trkpt>
      <trkpt lat="47.16727" lon="-1.65747">
        <ele>25.3</ele>
        <time>2015-08-30T17:02:16Z</time>
      </trkpt>
      <trkpt lat="47.16711" lon="-1.65729">
        <ele>25.4</ele>
        <time>2015-08-30T17:02:20Z</time>
      </trkpt>
      <trkpt lat="47.16692" lon="-1.65723">
        <ele>25.3</ele>
        <time>2015-08-30T17:02:25Z</time>
      </trkpt>
      <trkpt lat="47.16672" lon="-1.65717">
        <ele>25.5</ele>
        <time>2015-08-30T17:02:31Z</time>
      </trkpt>
      <trkpt lat="47.16652" lon="-1.6571">
        <ele>25.6</ele>
        <time>2015-08-30T17:02:37Z</time>
      </trkpt>
      <trkpt lat="47.16632" lon="-1.65701">
        <ele>25.7</ele>
        <time>2015-08-30T17:02:43Z</time>
      </trkpt>
      <trkpt lat="47.16614" lon="-1.6569">
        <ele>25.5</ele>
        <time>2015-08-30T17:02:50Z</time>
      </trkpt>
      <trkpt lat="47.16597" lon="-1.65682">
        <ele>25.3</ele>
        <time>2015-08-30T17:02:56Z</time>
      </trkpt>
      <trkpt lat="47.16577" lon="-1.65672">
        <ele>25.4</ele>
        <time>2015-08-30T17:03:01Z</time>
      </trkpt>
      <trkpt lat="47.16558" lon="-1.65666">
        <ele>25.6</ele>
        <time>2015-08-30T17:03:06Z</time>
      </trkpt>
      <trkpt lat="47.1654" lon="-1.65674">
        <ele>25.9</ele>
        <time>2015-08-30T17:03:12Z</time>
      </trkpt>
      <trkpt lat="47.16522" lon="-1.6567">
        <ele>26.2</ele>
        <time>2015-08-30T17:03:17Z</time>
      </trkpt>
      <trkpt lat="47.16504" lon="-1.65657">
        <ele>26.3</ele>
        <time>2015-08-30T17:03:22Z</time>
      </trkpt>
      <trkpt lat="47.16489" lon="-1.65639">
        <ele>26.2</ele>
        <time>2015-08-30T17:03:30Z</time>
      </trkpt>
      <trkpt lat="47.16474" lon="-1.6562">
        <ele>26.3</ele>
        <time>2015-08-30T17:03:38Z</time>
      </trkpt>
      <trkpt lat="47.16459" lon="-1.656">
        <ele>26.4</ele>
        <time>2015-08-30T17:03:46Z</time>
      </trkpt>
      <trkpt lat="47.1644" lon="-1.65584">
        <ele>26.4</ele>
        <time>2015-08-30T17:03:51Z</time>
      </trkpt>
      <trkpt lat="47.16422" lon="-1.65577">
        <ele>26.5</ele>
        <time>2015-08-30T17:03:57Z</time>
      </trkpt>
      <trkpt lat="47.16408" lon="-1.65558">
        <ele>26.5</ele>
        <time>2015-08-30T17:04:01Z</time>
      </trkpt>
      <trkpt lat="47.16397" lon="-1.65532">
        <ele>26.5</ele>
        <time>2015-08-30T17:04:11Z</time>
      </trkpt>
      <trkpt lat="47.16389" lon="-1.65504">
        <ele>26.4</ele>
        <time>2015-08-30T17:04:17Z</time>
      </trkpt>
      <trkpt lat="47.16385" lon="-1.65477">
        <ele>26.4</ele>
        <time>2015-08-30T17:04:23Z</time>
      </trkpt>
      <trkpt lat="47.16374" lon="-1.65453">
        <ele>26.3</ele>
        <time>2015-08-30T17:04:30Z</time>
      </trkpt>
      <trkpt lat="47.16364" lon="-1.65428">
        <ele>26.3</ele>
        <time>2015-08-30T17:04:35Z</time>
      </trkpt>
      <trkpt lat="47.16352" lon="-1.65407">
        <ele>26.2</ele>
        <time>2015-08-30T17:04:39Z</time>
      </trkpt>
      <trkpt lat="47.1634" lon="-1.65382">
        <ele>26.1</ele>
        <time>2015-08-30T17:04:43Z</time>
      </trkpt>
      <trkpt lat="47.16329" lon="-1.65361">
        <ele>26</ele>
        <time>2015-08-30T17:04:48Z</time>
      </trkpt>
      <trkpt lat="47.16314" lon="-1.65341">
        <ele>25.8</ele>
        <time>2015-08-30T17:04:54Z</time>
      </trkpt>
      <trkpt lat="47.16301" lon="-1.65318">
        <ele>25.6</ele>
        <time>2015-08-30T17:05:00Z</time>
      </trkpt>
      <trkpt lat="47.16294" lon="-1.65293">
        <ele>25.3</ele>
        <time>2015-08-30T17:05:05Z</time>
      </trkpt>
      <trkpt lat="47.16287" lon="-1.65268">
        <ele>25</ele>
        <time>2015-08-30T17:05:10Z</time>
      </trkpt>
      <trkpt lat="47.16279" lon="-1.65241">
        <ele>23.9</ele>
        <time>2015-08-30T17:05:18Z</time>
      </trkpt>
      <trkpt lat="47.16277" lon="-1.65214">
        <ele>22.6</ele>
        <time>2015-08-30T17:05:26Z</time>
      </trkpt>
      <trkpt lat="47.16289" lon="-1.65194">
        <ele>21.8</ele>
        <time>2015-08-30T17:05:34Z</time>
      </trkpt>
      <trkpt lat="47.16293" lon="-1.65165">
        <ele>20.8</ele>
        <time>2015-08-30T17:05:42Z</time>
      </trkpt>
      <trkpt lat="47.16289" lon="-1.65137">
        <ele>20.4</ele>
        <time>2015-08-30T17:05:48Z</time>
      </trkpt>
      <trkpt lat="47.16284" lon="-1.65109">
        <ele>19.9</ele>
        <time>2015-08-30T17:05:54Z</time>
      </trkpt>
      <trkpt lat="47.16282" lon="-1.65082">
        <ele>19.3</ele>
        <time>2015-08-30T17:05:59Z</time>
      </trkpt>
      <trkpt lat="47.16277" lon="-1.65054">
        <ele>18.8</ele>
        <time>2015-08-30T17:06:03Z</time>
      </trkpt>
      <trkpt lat="47.16266" lon="-1.65026">
        <ele>18.1</ele>
        <time>2015-08-30T17:06:08Z</time>
      </trkpt>
      <trkpt lat="47.16276" lon="-1.65">
        <ele>16.7</ele>
        <time>2015-08-30T17:06:17Z</time>
      </trkpt>
      <trkpt lat="47.16269" lon="-1.64972">
        <ele>15.7</ele>
        <time>2015-08-30T17:06:22Z</time>
      </trkpt>
      <trkpt lat="47.16252" lon="-1.64954">
        <ele>15.3</ele>
        <time>2015-08-30T17:06:26Z</time>
      </trkpt>
      <trkpt lat="47.16236" lon="-1.64937">
        <ele>14.6</ele>
        <time>2015-08-30T17:06:31Z</time>
      </trkpt>
      <trkpt lat="47.16217" lon="-1.64939">
        <ele>13.4</ele>
        <time>2015-08-30T17:06:38Z</time>
      </trkpt>
      <trkpt lat="47.16199" lon="-1.64932">
        <ele>12.5</ele>
        <time>2015-08-30T17:06:44Z</time>
      </trkpt>
      <trkpt lat="47.16179" lon="-1.64943">
        <ele>11.2</ele>
        <time>2015-08-30T17:06:51Z</time>
      </trkpt>
      <trkpt lat="47.16165" lon="-1.64966">
        <ele>10.2</ele>
        <time>2015-08-30T17:06:56Z</time>
      </trkpt>
      <trkpt lat="47.16148" lon="-1.64984">
        <ele>9.2</ele>
        <time>2015-08-30T17:07:02Z</time>
      </trkpt>
      <trkpt lat="47.16135" lon="-1.65008">
        <ele>8.3</ele>
        <time>2015-08-30T17:07:08Z</time>
      </trkpt>
      <trkpt lat="47.16116" lon="-1.65003">
        <ele>7.2</ele>
        <time>2015-08-30T17:07:15Z</time>
      </trkpt>
      <trkpt lat="47.16097" lon="-1.64997">
        <ele>6.4</ele>
        <time>2015-08-30T17:07:23Z</time>
      </trkpt>
      <trkpt lat="47.16078" lon="-1.65002">
        <ele>5.3</ele>
        <time>2015-08-30T17:07:31Z</time>
      </trkpt>
      <trkpt lat="47.16059" lon="-1.65002">
        <ele>4.1</ele>
        <time>2015-08-30T17:07:40Z</time>
      </trkpt>
      <trkpt lat="47.16046" lon="-1.64982">
        <ele>3.5</ele>
        <time>2015-08-30T17:07:46Z</time>
      </trkpt>
      <trkpt lat="47.16034" lon="-1.64961">
        <ele>2.7</ele>
        <time>2015-08-30T17:07:52Z</time>
      </trkpt>
      <trkpt lat="47.1604" lon="-1.64933">
        <ele>2.2</ele>
        <time>2015-08-30T17:07:58Z</time>
      </trkpt>
      <trkpt lat="47.16034" lon="-1.64896">
        <ele>1.6</ele>
        <time>2015-08-30T17:08:05Z</time>
      </trkpt>
      <trkpt lat="47.1603" lon="-1.64869">
        <ele>1.3</ele>
        <time>2015-08-30T17:08:09Z</time>
      </trkpt>
      <trkpt lat="47.16039" lon="-1.64846">
        <ele>0.7</ele>
        <time>2015-08-30T17:08:14Z</time>
      </trkpt>
      <trkpt lat="47.16047" lon="-1.64821">
        <ele>0.1</ele>
        <time>2015-08-30T17:08:19Z</time>
      </trkpt>
      <trkpt lat="47.16043" lon="-1.64791">
        <ele>0.2</ele>
        <time>2015-08-30T17:08:29Z</time>
      </trkpt>
      <trkpt lat="47.1603" lon="-1.64769">
        <ele>0.7</ele>
        <time>2015-08-30T17:08:33Z</time>
      </trkpt>
      <trkpt lat="47.16019" lon="-1.64739">
        <ele>1.3</ele>
        <time>2015-08-30T17:08:42Z</time>
      </trkpt>
      <trkpt lat="47.16018" lon="-1.6471">
        <ele>1.7</ele>
        <time>2015-08-30T17:08:48Z</time>
      </trkpt>
      <trkpt lat="47.16009" lon="-1.64685">
        <ele>1.9</ele>
        <time>2015-08-30T17:08:52Z</time>
      </trkpt>
      <trkpt lat="47.15998" lon="-1.64664">
        <ele>1.8</ele>
        <time>2015-08-30T17:08:58Z</time>
      </trkpt>
      <trkpt lat="47.15998" lon="-1.64637">
        <ele>2.2</ele>
        <time>2015-08-30T17:09:04Z</time>
      </trkpt>
      <trkpt lat="47.15992" lon="-1.64602">
        <ele>2.5</ele>
        <time>2015-08-30T17:09:09Z</time>
      </trkpt>
      <trkpt lat="47.15982" lon="-1.64576">
        <ele>2.5</ele>
        <time>2015-08-30T17:09:15Z</time>
      </trkpt>
      <trkpt lat="47.15978" lon="-1.64548">
        <ele>2.4</ele>
        <time>2015-08-30T17:09:20Z</time>
      </trkpt>
      <trkpt lat="47.15973" lon="-1.64518">
        <ele>2.5</ele>
        <time>2015-08-30T17:09:27Z</time>
      </trkpt>
      <trkpt lat="47.15964" lon="-1.64494">
        <ele>2.6</ele>
        <time>2015-08-30T17:09:33Z</time>
      </trkpt>
      <trkpt lat="47.15963" lon="-1.64464">
        <ele>2.7</ele>
        <time>2015-08-30T17:09:40Z</time>
      </trkpt>
      <trkpt lat="47.15972" lon="-1.64439">
        <ele>2.9</ele>
        <time>2015-08-30T17:09:45Z</time>
      </trkpt>
      <trkpt lat="47.15981" lon="-1.64416">
        <ele>3.1</ele>
        <time>2015-08-30T17:09:50Z</time>
      </trkpt>
      <trkpt lat="47.15994" lon="-1.64392">
        <ele>3.2</ele>
        <time>2015-08-30T17:09:57Z</time>
      </trkpt>
      <trkpt lat="47.16008" lon="-1.64375">
        <ele>3.3</ele>
        <time>2015-08-30T17:10:03Z</time>
      </trkpt>
      <trkpt lat="47.16023" lon="-1.64358">
        <ele>3.3</ele>
        <time>2015-08-30T17:10:08Z</time>
      </trkpt>
      <trkpt lat="47.16039" lon="-1.64339">
        <ele>3.4</ele>
        <time>2015-08-30T17:10:14Z</time>
      </trkpt>
      <trkpt lat="47.16054" lon="-1.6432">
        <ele>3.4</ele>
        <time>2015-08-30T17:10:20Z</time>
      </trkpt>
      <trkpt lat="47.16069" lon="-1.64304">
        <ele>3.5</ele>
        <time>2015-08-30T17:10:27Z</time>
      </trkpt>
      <trkpt lat="47.16084" lon="-1.64287">
        <ele>3.5</ele>
        <time>2015-08-30T17:10:34Z</time>
      </trkpt>
      <trkpt lat="47.16095" lon="-1.64261">
        <ele>3.3</ele>
        <time>2015-08-30T17:10:40Z</time>
      </trkpt>
      <trkpt lat="47.16109" lon="-1.64238">
        <ele>3.2</ele>
        <time>2015-08-30T17:10:44Z</time>
      </trkpt>
      <trkpt lat="47.16123" lon="-1.64222">
        <ele>2.6</ele>
        <time>2015-08-30T17:10:54Z</time>
      </trkpt>
      <trkpt lat="47.1613" lon="-1.64195">
        <ele>2.4</ele>
        <time>2015-08-30T17:11:01Z</time>
      </trkpt>
      <trkpt lat="47.1613" lon="-1.64165">
        <ele>2.3</ele>
        <time>2015-08-30T17:11:07Z</time>
      </trkpt>
      <trkpt lat="47.16164" lon="-1.64106">
        <ele>2.7</ele>
        <time>2015-08-30T17:11:26Z</time>
      </trkpt>
      <trkpt lat="47.16181" lon="-1.64094">
        <ele>2.7</ele>
        <time>2015-08-30T17:11:32Z</time>
      </trkpt>
      <trkpt lat="47.16201" lon="-1.64089">
        <ele>2.7</ele>
        <time>2015-08-30T17:11:37Z</time>
      </trkpt>
      <trkpt lat="47.1622" lon="-1.64095">
        <ele>2.5</ele>
        <time>2015-08-30T17:11:40Z</time>
      </trkpt>
      <trkpt lat="47.16238" lon="-1.64089">
        <ele>2.3</ele>
        <time>2015-08-30T17:11:46Z</time>
      </trkpt>
      <trkpt lat="47.16251" lon="-1.64069">
        <ele>1.6</ele>
        <time>2015-08-30T17:11:57Z</time>
      </trkpt>
      <trkpt lat="47.16254" lon="-1.64039">
        <ele>0.6</ele>
        <time>2015-08-30T17:12:03Z</time>
      </trkpt>
      <trkpt lat="47.16265" lon="-1.64016">
        <ele>0.6</ele>
        <time>2015-08-30T17:12:08Z</time>
      </trkpt>
      <trkpt lat="47.16279" lon="-1.63998">
        <ele>0.2</ele>
        <time>2015-08-30T17:12:14Z</time>
      </trkpt>
      <trkpt lat="47.16297" lon="-1.63982">
        <ele>-0.3</ele>
        <time>2015-08-30T17:12:21Z</time>
      </trkpt>
      <trkpt lat="47.16317" lon="-1.63971">
        <ele>-1.1</ele>
        <time>2015-08-30T17:12:26Z</time>
      </trkpt>
      <trkpt lat="47.16333" lon="-1.63958">
        <ele>-1.7</ele>
        <time>2015-08-30T17:12:33Z</time>
      </trkpt>
      <trkpt lat="47.16352" lon="-1.63952">
        <ele>-2.1</ele>
        <time>2015-08-30T17:12:39Z</time>
      </trkpt>
      <trkpt lat="47.16371" lon="-1.6394">
        <ele>-2.4</ele>
        <time>2015-08-30T17:12:44Z</time>
      </trkpt>
      <trkpt lat="47.1639" lon="-1.63926">
        <ele>-2.9</ele>
        <time>2015-08-30T17:12:50Z</time>
      </trkpt>
      <trkpt lat="47.16408" lon="-1.63916">
        <ele>-3.3</ele>
        <time>2015-08-30T17:12:55Z</time>
      </trkpt>
      <trkpt lat="47.16423" lon="-1.63899">
        <ele>-3.7</ele>
        <time>2015-08-30T17:13:01Z</time>
      </trkpt>
      <trkpt lat="47.16438" lon="-1.6388">
        <ele>-4</ele>
        <time>2015-08-30T17:13:08Z</time>
      </trkpt>
      <trkpt lat="47.16452" lon="-1.6386">
        <ele>-4.3</ele>
        <time>2015-08-30T17:13:14Z</time>
      </trkpt>
      <trkpt lat="47.16468" lon="-1.63844">
        <ele>-4.5</ele>
        <time>2015-08-30T17:13:19Z</time>
      </trkpt>
      <trkpt lat="47.16486" lon="-1.63837">
        <ele>-4.7</ele>
        <time>2015-08-30T17:13:24Z</time>
      </trkpt>
      <trkpt lat="47.16505" lon="-1.63828">
        <ele>-4.8</ele>
        <time>2015-08-30T17:13:29Z</time>
      </trkpt>
      <trkpt lat="47.16524" lon="-1.63821">
        <ele>-4.8</ele>
        <time>2015-08-30T17:13:33Z</time>
      </trkpt>
      <trkpt lat="47.1654" lon="-1.63806">
        <ele>-4.9</ele>
        <time>2015-08-30T17:13:38Z</time>
      </trkpt>
      <trkpt lat="47.16546" lon="-1.63779">
        <ele>-5.1</ele>
        <time>2015-08-30T17:13:45Z</time>
      </trkpt>
      <trkpt lat="47.16533" lon="-1.63759">
        <ele>-5.3</ele>
        <time>2015-08-30T17:13:53Z</time>
      </trkpt>
      <trkpt lat="47.16522" lon="-1.63735">
        <ele>-5.4</ele>
        <time>2015-08-30T17:13:58Z</time>
      </trkpt>
      <trkpt lat="47.1651" lon="-1.63706">
        <ele>-5.4</ele>
        <time>2015-08-30T17:14:02Z</time>
      </trkpt>
      <trkpt lat="47.16499" lon="-1.63683">
        <ele>-5.4</ele>
        <time>2015-08-30T17:14:05Z</time>
      </trkpt>
      <trkpt lat="47.16489" lon="-1.63657">
        <ele>-5.4</ele>
        <time>2015-08-30T17:14:08Z</time>
      </trkpt>
      <trkpt lat="47.16477" lon="-1.63631">
        <ele>-5.4</ele>
        <time>2015-08-30T17:14:12Z</time>
      </trkpt>
      <trkpt lat="47.16461" lon="-1.6362">
        <ele>-5.4</ele>
        <time>2015-08-30T17:14:18Z</time>
      </trkpt>
      <trkpt lat="47.16448" lon="-1.63598">
        <ele>-5.3</ele>
        <time>2015-08-30T17:14:23Z</time>
      </trkpt>
      <trkpt lat="47.16437" lon="-1.63571">
        <ele>-5.2</ele>
        <time>2015-08-30T17:14:27Z</time>
      </trkpt>
      <trkpt lat="47.16423" lon="-1.6355">
        <ele>-5.2</ele>
        <time>2015-08-30T17:14:33Z</time>
      </trkpt>
      <trkpt lat="47.16402" lon="-1.63544">
        <ele>-5.2</ele>
        <time>2015-08-30T17:14:39Z</time>
      </trkpt>
      <trkpt lat="47.16382" lon="-1.6355">
        <ele>-5.3</ele>
        <time>2015-08-30T17:14:45Z</time>
      </trkpt>
      <trkpt lat="47.16362" lon="-1.6356">
        <ele>-5.3</ele>
        <time>2015-08-30T17:14:50Z</time>
      </trkpt>
      <trkpt lat="47.16344" lon="-1.63558">
        <ele>-5.1</ele>
        <time>2015-08-30T17:14:55Z</time>
      </trkpt>
      <trkpt lat="47.1633" lon="-1.63538">
        <ele>-5.1</ele>
        <time>2015-08-30T17:15:00Z</time>
      </trkpt>
      <trkpt lat="47.16314" lon="-1.63521">
        <ele>-5</ele>
        <time>2015-08-30T17:15:06Z</time>
      </trkpt>
      <trkpt lat="47.16297" lon="-1.6351">
        <ele>-4.9</ele>
        <time>2015-08-30T17:15:12Z</time>
      </trkpt>
      <trkpt lat="47.16279" lon="-1.63497">
        <ele>-4.7</ele>
        <time>2015-08-30T17:15:18Z</time>
      </trkpt>
      <trkpt lat="47.16264" lon="-1.63482">
        <ele>-4.7</ele>
        <time>2015-08-30T17:15:26Z</time>
      </trkpt>
      <trkpt lat="47.16253" lon="-1.6346">
        <ele>-4.8</ele>
        <time>2015-08-30T17:15:35Z</time>
      </trkpt>
      <trkpt lat="47.16242" lon="-1.63438">
        <ele>-4.9</ele>
        <time>2015-08-30T17:15:44Z</time>
      </trkpt>
      <trkpt lat="47.16233" lon="-1.63412">
        <ele>-4.9</ele>
        <time>2015-08-30T17:15:51Z</time>
      </trkpt>
      <trkpt lat="47.16224" lon="-1.63382">
        <ele>-5.1</ele>
        <time>2015-08-30T17:15:56Z</time>
      </trkpt>
      <trkpt lat="47.16215" lon="-1.63359">
        <ele>-5.1</ele>
        <time>2015-08-30T17:16:01Z</time>
      </trkpt>
      <trkpt lat="47.16211" lon="-1.63333">
        <ele>-5.1</ele>
        <time>2015-08-30T17:16:11Z</time>
      </trkpt>
      <trkpt lat="47.16204" lon="-1.63306">
        <ele>-5.1</ele>
        <time>2015-08-30T17:16:15Z</time>
      </trkpt>
      <trkpt lat="47.16198" lon="-1.63277">
        <ele>-5.1</ele>
        <time>2015-08-30T17:16:17Z</time>
      </trkpt>
      <trkpt lat="47.16191" lon="-1.63249">
        <ele>-5.2</ele>
        <time>2015-08-30T17:16:22Z</time>
      </trkpt>
      <trkpt lat="47.16182" lon="-1.63224">
        <ele>-5.2</ele>
        <time>2015-08-30T17:16:30Z</time>
      </trkpt>
      <trkpt lat="47.16175" lon="-1.63199">
        <ele>-5.2</ele>
        <time>2015-08-30T17:16:39Z</time>
      </trkpt>
      <trkpt lat="47.16168" lon="-1.63174">
        <ele>-5.2</ele>
        <time>2015-08-30T17:16:44Z</time>
      </trkpt>
      <trkpt lat="47.16159" lon="-1.63146">
        <ele>-5.3</ele>
        <time>2015-08-30T17:16:53Z</time>
      </trkpt>
      <trkpt lat="47.16152" lon="-1.63114">
        <ele>-5.3</ele>
        <time>2015-08-30T17:16:58Z</time>
      </trkpt>
      <trkpt lat="47.1615" lon="-1.63086">
        <ele>-5.3</ele>
        <time>2015-08-30T17:17:02Z</time>
      </trkpt>
      <trkpt lat="47.16153" lon="-1.63057">
        <ele>-5.3</ele>
        <time>2015-08-30T17:17:08Z</time>
      </trkpt>
      <trkpt lat="47.16156" lon="-1.6303">
        <ele>-5.3</ele>
        <time>2015-08-30T17:17:13Z</time>
      </trkpt>
      <trkpt lat="47.16161" lon="-1.63001">
        <ele>-5.3</ele>
        <time>2015-08-30T17:17:20Z</time>
      </trkpt>
      <trkpt lat="47.16174" lon="-1.62977">
        <ele>-5.3</ele>
        <time>2015-08-30T17:17:28Z</time>
      </trkpt>
      <trkpt lat="47.16187" lon="-1.62957">
        <ele>-5.3</ele>
        <time>2015-08-30T17:17:34Z</time>
      </trkpt>
      <trkpt lat="47.16188" lon="-1.62931">
        <ele>-5.4</ele>
        <time>2015-08-30T17:17:40Z</time>
      </trkpt>
      <trkpt lat="47.16189" lon="-1.62901">
        <ele>-5.4</ele>
        <time>2015-08-30T17:17:45Z</time>
      </trkpt>
      <trkpt lat="47.16191" lon="-1.62872">
        <ele>-5.4</ele>
        <time>2015-08-30T17:17:50Z</time>
      </trkpt>
      <trkpt lat="47.1619" lon="-1.62838">
        <ele>-5.3</ele>
        <time>2015-08-30T17:17:55Z</time>
      </trkpt>
      <trkpt lat="47.1619" lon="-1.62805">
        <ele>-5.3</ele>
        <time>2015-08-30T17:18:00Z</time>
      </trkpt>
      <trkpt lat="47.1619" lon="-1.62775">
        <ele>-5.3</ele>
        <time>2015-08-30T17:18:05Z</time>
      </trkpt>
      <trkpt lat="47.16203" lon="-1.62758">
        <ele>-5.4</ele>
        <time>2015-08-30T17:18:10Z</time>
      </trkpt>
      <trkpt lat="47.16218" lon="-1.62736">
        <ele>-5.6</ele>
        <time>2015-08-30T17:18:15Z</time>
      </trkpt>
      <trkpt lat="47.16236" lon="-1.6272">
        <ele>-5.9</ele>
        <time>2015-08-30T17:18:22Z</time>
      </trkpt>
      <trkpt lat="47.16253" lon="-1.62714">
        <ele>-5.9</ele>
        <time>2015-08-30T17:18:29Z</time>
      </trkpt>
      <trkpt lat="47.16252" lon="-1.62683">
        <ele>-5.3</ele>
        <time>2015-08-30T17:18:45Z</time>
      </trkpt>
      <trkpt lat="47.16251" lon="-1.62651">
        <ele>-5.1</ele>
        <time>2015-08-30T17:18:50Z</time>
      </trkpt>
      <trkpt lat="47.16249" lon="-1.62623">
        <ele>-5</ele>
        <time>2015-08-30T17:18:54Z</time>
      </trkpt>
      <trkpt lat="47.16251" lon="-1.62594">
        <ele>-5</ele>
        <time>2015-08-30T17:19:00Z</time>
      </trkpt>
      <trkpt lat="47.1627" lon="-1.62593">
        <ele>-5.1</ele>
        <time>2015-08-30T17:19:07Z</time>
      </trkpt>
      <trkpt lat="47.16286" lon="-1.62578">
        <ele>-5.2</ele>
        <time>2015-08-30T17:19:14Z</time>
      </trkpt>
      <trkpt lat="47.16305" lon="-1.62571">
        <ele>-5</ele>
        <time>2015-08-30T17:19:20Z</time>
      </trkpt>
      <trkpt lat="47.16326" lon="-1.62574">
        <ele>-4.5</ele>
        <time>2015-08-30T17:19:25Z</time>
      </trkpt>
      <trkpt lat="47.16344" lon="-1.62579">
        <ele>-4.1</ele>
        <time>2015-08-30T17:19:30Z</time>
      </trkpt>
      <trkpt lat="47.16365" lon="-1.62582">
        <ele>-3.4</ele>
        <time>2015-08-30T17:19:36Z</time>
      </trkpt>
      <trkpt lat="47.16385" lon="-1.62579">
        <ele>-1.6</ele>
        <time>2015-08-30T17:19:42Z</time>
      </trkpt>
      <trkpt lat="47.16404" lon="-1.6257">
        <ele>0.3</ele>
        <time>2015-08-30T17:19:50Z</time>
      </trkpt>
      <trkpt lat="47.1642" lon="-1.62555">
        <ele>2.1</ele>
        <time>2015-08-30T17:19:57Z</time>
      </trkpt>
      <trkpt lat="47.16438" lon="-1.62543">
        <ele>3.7</ele>
        <time>2015-08-30T17:20:04Z</time>
      </trkpt>
      <trkpt lat="47.16459" lon="-1.6255">
        <ele>5.8</ele>
        <time>2015-08-30T17:20:10Z</time>
      </trkpt>
      <trkpt lat="47.16477" lon="-1.62553">
        <ele>7.7</ele>
        <time>2015-08-30T17:20:15Z</time>
      </trkpt>
      <trkpt lat="47.16496" lon="-1.62558">
        <ele>10.1</ele>
        <time>2015-08-30T17:20:21Z</time>
      </trkpt>
      <trkpt lat="47.16515" lon="-1.62558">
        <ele>10.9</ele>
        <time>2015-08-30T17:20:27Z</time>
      </trkpt>
      <trkpt lat="47.16535" lon="-1.62559">
        <ele>13.2</ele>
        <time>2015-08-30T17:20:33Z</time>
      </trkpt>
      <trkpt lat="47.16552" lon="-1.62548">
        <ele>14.8</ele>
        <time>2015-08-30T17:20:39Z</time>
      </trkpt>
      <trkpt lat="47.16566" lon="-1.6253">
        <ele>17.1</ele>
        <time>2015-08-30T17:20:46Z</time>
      </trkpt>
      <trkpt lat="47.16578" lon="-1.62507">
        <ele>18.5</ele>
        <time>2015-08-30T17:20:52Z</time>
      </trkpt>
      <trkpt lat="47.16589" lon="-1.62483">
        <ele>19.6</ele>
        <time>2015-08-30T17:20:58Z</time>
      </trkpt>
      <trkpt lat="47.16599" lon="-1.62459">
        <ele>20.8</ele>
        <time>2015-08-30T17:21:04Z</time>
      </trkpt>
      <trkpt lat="47.16611" lon="-1.62434">
        <ele>21.7</ele>
        <time>2015-08-30T17:21:10Z</time>
      </trkpt>
      <trkpt lat="47.16619" lon="-1.6241">
        <ele>23</ele>
        <time>2015-08-30T17:21:16Z</time>
      </trkpt>
      <trkpt lat="47.1663" lon="-1.62388">
        <ele>24</ele>
        <time>2015-08-30T17:21:22Z</time>
      </trkpt>
      <trkpt lat="47.16644" lon="-1.62369">
        <ele>25.1</ele>
        <time>2015-08-30T17:21:28Z</time>
      </trkpt>
      <trkpt lat="47.16663" lon="-1.62355">
        <ele>26.2</ele>
        <time>2015-08-30T17:21:35Z</time>
      </trkpt>
      <trkpt lat="47.16683" lon="-1.62353">
        <ele>27.4</ele>
        <time>2015-08-30T17:21:40Z</time>
      </trkpt>
      <trkpt lat="47.16699" lon="-1.62369">
        <ele>28</ele>
        <time>2015-08-30T17:21:45Z</time>
      </trkpt>
      <trkpt lat="47.16714" lon="-1.62387">
        <ele>28.4</ele>
        <time>2015-08-30T17:21:51Z</time>
      </trkpt>
      <trkpt lat="47.16712" lon="-1.62415">
        <ele>29</ele>
        <time>2015-08-30T17:21:58Z</time>
      </trkpt>
      <trkpt lat="47.16706" lon="-1.6244">
        <ele>29.6</ele>
        <time>2015-08-30T17:22:06Z</time>
      </trkpt>
      <trkpt lat="47.16716" lon="-1.62465">
        <ele>30.5</ele>
        <time>2015-08-30T17:22:14Z</time>
      </trkpt>
      <trkpt lat="47.16721" lon="-1.62492">
        <ele>30.7</ele>
        <time>2015-08-30T17:22:22Z</time>
      </trkpt>
      <trkpt lat="47.16715" lon="-1.62519">
        <ele>31.1</ele>
        <time>2015-08-30T17:22:28Z</time>
      </trkpt>
      <trkpt lat="47.16711" lon="-1.62545">
        <ele>31.6</ele>
        <time>2015-08-30T17:22:34Z</time>
      </trkpt>
      <trkpt lat="47.16708" lon="-1.62574">
        <ele>32</ele>
        <time>2015-08-30T17:22:40Z</time>
      </trkpt>
      <trkpt lat="47.16707" lon="-1.62606">
        <ele>32.4</ele>
        <time>2015-08-30T17:22:47Z</time>
      </trkpt>
      <trkpt lat="47.16707" lon="-1.62635">
        <ele>32.8</ele>
        <time>2015-08-30T17:22:53Z</time>
      </trkpt>
      <trkpt lat="47.16712" lon="-1.62664">
        <ele>33</ele>
        <time>2015-08-30T17:23:00Z</time>
      </trkpt>
      <trkpt lat="47.16722" lon="-1.62687">
        <ele>32.8</ele>
        <time>2015-08-30T17:23:06Z</time>
      </trkpt>
      <trkpt lat="47.1674" lon="-1.62686">
        <ele>32</ele>
        <time>2015-08-30T17:23:12Z</time>
      </trkpt>
      <trkpt lat="47.1676" lon="-1.6268">
        <ele>31.3</ele>
        <time>2015-08-30T17:23:18Z</time>
      </trkpt>
      <trkpt lat="47.16778" lon="-1.62677">
        <ele>30.7</ele>
        <time>2015-08-30T17:23:24Z</time>
      </trkpt>
    </trkseg>
  </trk>
</gpx>